sensor_id;sensor_type;location;lat;lon;timestamp;pressure;altitude;pressure_sealevel;temperature;humidity
32492;BME280;20605;49.742;18.802;2023-04-07T00:01:04;97775.24;;;1.68;100.00
32492;BME280;20605;49.742;18.802;2023-04-07T00:03:30;97772.48;;;1.63;100.00
32492;BME280;20605;49.742;18.802;2023-04-07T00:05:56;97770.42;;;1.60;100.00
32492;BME280;20605;49.742;18.802;2023-04-07T00:08:22;97769.56;;;1.58;100.00
32492;BME280;20605;49.742;18.802;2023-04-07T00:10:47;97766.45;;;1.50;100.00
32492;BME280;20605;49.742;18.802;2023-04-07T00:13:13;97766.27;;;1.45;100.00
32492;BME280;20605;49.742;18.802;2023-04-07T00:15:39;97764.05;;;1.49;100.00
32492;BME280;20605;49.742;18.802;2023-04-07T00:18:04;97761.66;;;1.49;100.00
32492;BME280;20605;49.742;18.802;2023-04-07T00:20:30;97761.32;;;1.49;100.00
32492;BME280;20605;49.742;18.802;2023-04-07T00:22:56;97756.53;;;1.49;100.00
32492;BME280;20605;49.742;18.802;2023-04-07T00:25:22;97753.11;;;1.49;100.00
32492;BME280;20605;49.742;18.802;2023-04-07T00:27:47;97755.33;;;1.48;100.00
32492;BME280;20605;49.742;18.802;2023-04-07T00:30:13;97750.70;;;1.46;100.00
32492;BME280;20605;49.742;18.802;2023-04-07T00:32:40;97748.13;;;1.46;100.00
32492;BME280;20605;49.742;18.802;2023-04-07T00:35:06;97746.42;;;1.47;100.00
32492;BME280;20605;49.742;18.802;2023-04-07T00:37:32;97741.81;;;1.48;100.00
32492;BME280;20605;49.742;18.802;2023-04-07T00:39:57;97740.45;;;1.51;100.00
32492;BME280;20605;49.742;18.802;2023-04-07T00:42:24;97740.29;;;1.53;100.00
32492;BME280;20605;49.742;18.802;2023-04-07T00:44:50;97740.80;;;1.52;100.00
32492;BME280;20605;49.742;18.802;2023-04-07T00:47:15;97737.02;;;1.48;100.00
32492;BME280;20605;49.742;18.802;2023-04-07T00:49:41;97738.73;;;1.48;100.00
32492;BME280;20605;49.742;18.802;2023-04-07T00:52:08;97732.05;;;1.47;100.00
32492;BME280;20605;49.742;18.802;2023-04-07T00:54:40;97731.03;;;1.48;100.00
32492;BME280;20605;49.742;18.802;2023-04-07T00:57:06;97732.57;;;1.48;100.00
32492;BME280;20605;49.742;18.802;2023-04-07T00:59:32;97729.83;;;1.44;100.00
32492;BME280;20605;49.742;18.802;2023-04-07T01:02:32;97727.59;;;1.45;100.00
32492;BME280;20605;49.742;18.802;2023-04-07T01:07:54;97721.13;;;1.53;100.00
32492;BME280;20605;49.742;18.802;2023-04-07T01:10:32;97718.38;;;1.53;100.00
32492;BME280;20605;49.742;18.802;2023-04-07T01:13:26;97713.77;;;1.55;100.00
32492;BME280;20605;49.742;18.802;2023-04-07T01:16:04;97710.00;;;1.55;100.00
32492;BME280;20605;49.742;18.802;2023-04-07T01:18:40;97712.40;;;1.57;100.00
32492;BME280;20605;49.742;18.802;2023-04-07T01:21:13;97709.51;;;1.60;100.00
32492;BME280;20605;49.742;18.802;2023-04-07T01:26:17;97710.20;;;1.60;100.00
32492;BME280;20605;49.742;18.802;2023-04-07T01:31:41;97712.06;;;1.56;100.00
32492;BME280;20605;49.742;18.802;2023-04-07T01:34:11;97710.52;;;1.54;100.00
32492;BME280;20605;49.742;18.802;2023-04-07T01:36:38;97709.13;;;1.48;100.00
32492;BME280;20605;49.742;18.802;2023-04-07T01:39:05;97705.86;;;1.42;100.00
32492;BME280;20605;49.742;18.802;2023-04-07T01:41:32;97701.42;;;1.43;100.00
32492;BME280;20605;49.742;18.802;2023-04-07T01:44:00;97698.69;;;1.46;100.00
32492;BME280;20605;49.742;18.802;2023-04-07T01:46:27;97692.36;;;1.44;100.00
32492;BME280;20605;49.742;18.802;2023-04-07T01:48:55;97692.52;;;1.44;100.00
32492;BME280;20605;49.742;18.802;2023-04-07T01:51:23;97691.67;;;1.47;100.00
32492;BME280;20605;49.742;18.802;2023-04-07T01:53:51;97690.65;;;1.46;100.00
32492;BME280;20605;49.742;18.802;2023-04-07T01:56:17;97687.39;;;1.46;100.00
32492;BME280;20605;49.742;18.802;2023-04-07T01:58:47;97688.59;;;1.47;100.00
32492;BME280;20605;49.742;18.802;2023-04-07T02:01:15;97690.48;;;1.44;100.00
32492;BME280;20605;49.742;18.802;2023-04-07T02:04:14;97685.00;;;1.46;100.00
32492;BME280;20605;49.742;18.802;2023-04-07T02:06:53;97687.75;;;1.49;100.00
32492;BME280;20605;49.742;18.802;2023-04-07T02:09:30;97689.13;;;1.54;100.00
32492;BME280;20605;49.742;18.802;2023-04-07T02:11:59;97691.35;;;1.54;100.00
32492;BME280;20605;49.742;18.802;2023-04-07T02:14:30;97692.04;;;1.55;100.00
32492;BME280;20605;49.742;18.802;2023-04-07T02:17:03;97689.64;;;1.54;100.00
32492;BME280;20605;49.742;18.802;2023-04-07T02:19:31;97689.13;;;1.55;100.00
32492;BME280;20605;49.742;18.802;2023-04-07T02:21:59;97690.83;;;1.49;100.00
32492;BME280;20605;49.742;18.802;2023-04-07T02:24:25;97691.33;;;1.46;100.00
32492;BME280;20605;49.742;18.802;2023-04-07T02:26:51;97696.29;;;1.45;100.00
32492;BME280;20605;49.742;18.802;2023-04-07T02:29:17;97691.33;;;1.43;100.00
32492;BME280;20605;49.742;18.802;2023-04-07T02:31:43;97692.86;;;1.43;100.00
32492;BME280;20605;49.742;18.802;2023-04-07T02:34:09;97690.29;;;1.38;100.00
32492;BME280;20605;49.742;18.802;2023-04-07T02:36:34;97680.86;;;1.37;100.00
32492;BME280;20605;49.742;18.802;2023-04-07T02:39:01;97685.16;;;1.40;100.00
32492;BME280;20605;49.742;18.802;2023-04-07T02:41:28;97685.33;;;1.44;100.00
32492;BME280;20605;49.742;18.802;2023-04-07T02:43:53;97686.02;;;1.40;100.00
32492;BME280;20605;49.742;18.802;2023-04-07T02:46:19;97682.23;;;1.31;100.00
32492;BME280;20605;49.742;18.802;2023-04-07T02:48:45;97675.05;;;1.24;100.00
32492;BME280;20605;49.742;18.802;2023-04-07T02:51:11;97672.14;;;1.23;100.00
32492;BME280;20605;49.742;18.802;2023-04-07T02:53:37;97674.38;;;1.24;100.00
32492;BME280;20605;49.742;18.802;2023-04-07T02:56:03;97674.72;;;1.26;100.00
32492;BME280;20605;49.742;18.802;2023-04-07T02:58:29;97673.34;;;1.26;100.00
32492;BME280;20605;49.742;18.802;2023-04-07T03:00:55;97669.75;;;1.24;100.00
32492;BME280;20605;49.742;18.802;2023-04-07T03:03:24;97667.87;;;1.24;100.00
32492;BME280;20605;49.742;18.802;2023-04-07T03:06:06;97668.03;;;1.22;100.00
32492;BME280;20605;49.742;18.802;2023-04-07T03:08:33;97666.66;;;1.20;100.00
32492;BME280;20605;49.742;18.802;2023-04-07T03:11:00;97668.52;;;1.16;100.00
32492;BME280;20605;49.742;18.802;2023-04-07T03:13:28;97672.98;;;1.16;100.00
32492;BME280;20605;49.742;18.802;2023-04-07T03:15:56;97674.86;;;1.20;100.00
32492;BME280;20605;49.742;18.802;2023-04-07T03:18:23;97678.98;;;1.24;100.00
32492;BME280;20605;49.742;18.802;2023-04-07T03:20:50;97681.55;;;1.25;100.00
32492;BME280;20605;49.742;18.802;2023-04-07T03:23:17;97676.77;;;1.27;100.00
32492;BME280;20605;49.742;18.802;2023-04-07T03:25:43;97673.52;;;1.26;100.00
32492;BME280;20605;49.742;18.802;2023-04-07T03:28:09;97669.23;;;1.23;100.00
32492;BME280;20605;49.742;18.802;2023-04-07T03:30:36;97670.23;;;1.18;100.00
32492;BME280;20605;49.742;18.802;2023-04-07T03:33:02;97674.35;;;1.19;100.00
32492;BME280;20605;49.742;18.802;2023-04-07T03:35:29;97665.47;;;1.20;100.00
32492;BME280;20605;49.742;18.802;2023-04-07T03:37:55;97660.67;;;1.19;100.00
32492;BME280;20605;49.742;18.802;2023-04-07T03:40:21;97663.92;;;1.20;100.00
32492;BME280;20605;49.742;18.802;2023-04-07T03:42:47;97666.48;;;1.19;100.00
32492;BME280;20605;49.742;18.802;2023-04-07T03:45:13;97669.05;;;1.20;100.00
32492;BME280;20605;49.742;18.802;2023-04-07T03:47:43;97666.48;;;1.22;100.00
32492;BME280;20605;49.742;18.802;2023-04-07T03:50:09;97669.57;;;1.22;100.00
32492;BME280;20605;49.742;18.802;2023-04-07T03:52:44;97674.55;;;1.26;100.00
32492;BME280;20605;49.742;18.802;2023-04-07T03:55:19;97677.45;;;1.27;100.00
32492;BME280;20605;49.742;18.802;2023-04-07T03:57:46;97679.50;;;1.30;100.00
32492;BME280;20605;49.742;18.802;2023-04-07T04:00:12;97679.84;;;1.34;100.00
32492;BME280;20605;49.742;18.802;2023-04-07T04:02:47;97682.40;;;1.32;100.00
32492;BME280;20605;49.742;18.802;2023-04-07T04:05:16;97679.15;;;1.31;100.00
32492;BME280;20605;49.742;18.802;2023-04-07T04:07:42;97677.10;;;1.34;100.00
32492;BME280;20605;49.742;18.802;2023-04-07T04:10:09;97676.76;;;1.32;100.00
32492;BME280;20605;49.742;18.802;2023-04-07T04:12:39;97678.63;;;1.32;100.00
32492;BME280;20605;49.742;18.802;2023-04-07T04:15:08;97680.35;;;1.37;100.00
32492;BME280;20605;49.742;18.802;2023-04-07T04:17:34;97677.11;;;1.40;100.00
32492;BME280;20605;49.742;18.802;2023-04-07T04:20:01;97678.31;;;1.41;100.00
32492;BME280;20605;49.742;18.802;2023-04-07T04:22:38;97681.57;;;1.43;100.00
32492;BME280;20605;49.742;18.802;2023-04-07T04:25:06;97681.23;;;1.45;100.00
32492;BME280;20605;49.742;18.802;2023-04-07T04:27:32;97682.61;;;1.47;100.00
32492;BME280;20605;49.742;18.802;2023-04-07T04:30:14;97683.98;;;1.50;100.00
32492;BME280;20605;49.742;18.802;2023-04-07T04:32:51;97685.18;;;1.50;100.00
32492;BME280;20605;49.742;18.802;2023-04-07T04:35:22;97687.40;;;1.50;100.00
32492;BME280;20605;49.742;18.802;2023-04-07T04:38:17;97695.61;;;1.47;100.00
32492;BME280;20605;49.742;18.802;2023-04-07T04:40:49;97694.92;;;1.45;100.00
32492;BME280;20605;49.742;18.802;2023-04-07T04:43:16;97694.59;;;1.48;100.00
32492;BME280;20605;49.742;18.802;2023-04-07T04:45:43;97690.83;;;1.49;100.00
32492;BME280;20605;49.742;18.802;2023-04-07T04:48:10;97688.25;;;1.47;100.00
32492;BME280;20605;49.742;18.802;2023-04-07T04:50:36;97687.05;;;1.49;100.00
32492;BME280;20605;49.742;18.802;2023-04-07T04:53:05;97688.44;;;1.53;100.00
32492;BME280;20605;49.742;18.802;2023-04-07T04:55:31;97687.09;;;1.60;100.00
32492;BME280;20605;49.742;18.802;2023-04-07T04:57:58;97682.30;;;1.64;100.00
32492;BME280;20605;49.742;18.802;2023-04-07T05:00:32;97688.81;;;1.68;100.00
32492;BME280;20605;49.742;18.802;2023-04-07T05:03:01;97688.63;;;1.63;100.00
32492;BME280;20605;49.742;18.802;2023-04-07T05:05:30;97685.38;;;1.58;100.00
32492;BME280;20605;49.742;18.802;2023-04-07T05:07:56;97687.09;;;1.58;100.00
32492;BME280;20605;49.742;18.802;2023-04-07T05:10:24;97685.55;;;1.66;100.00
32492;BME280;20605;49.742;18.802;2023-04-07T05:12:50;97682.98;;;1.71;100.00
32492;BME280;20605;49.742;18.802;2023-04-07T05:15:15;97684.70;;;1.72;100.00
32492;BME280;20605;49.742;18.802;2023-04-07T05:17:43;97685.90;;;1.69;100.00
32492;BME280;20605;49.742;18.802;2023-04-07T05:20:18;97683.33;;;1.66;100.00
32492;BME280;20605;49.742;18.802;2023-04-07T05:22:44;97685.73;;;1.66;100.00
32492;BME280;20605;49.742;18.802;2023-04-07T05:25:11;97686.75;;;1.67;100.00
32492;BME280;20605;49.742;18.802;2023-04-07T05:27:38;97688.47;;;1.68;100.00
32492;BME280;20605;49.742;18.802;2023-04-07T05:30:10;97690.02;;;1.71;100.00
32492;BME280;20605;49.742;18.802;2023-04-07T05:32:36;97683.52;;;1.75;100.00
32492;BME280;20605;49.742;18.802;2023-04-07T05:35:07;97689.16;;;1.79;100.00
32492;BME280;20605;49.742;18.802;2023-04-07T05:37:34;97688.66;;;1.82;100.00
32492;BME280;20605;49.742;18.802;2023-04-07T05:40:03;97687.63;;;1.85;100.00
32492;BME280;20605;49.742;18.802;2023-04-07T05:42:29;97685.23;;;1.84;100.00
32492;BME280;20605;49.742;18.802;2023-04-07T05:44:55;97690.71;;;1.87;100.00
32492;BME280;20605;49.742;18.802;2023-04-07T05:47:21;97693.80;;;1.90;100.00
32492;BME280;20605;49.742;18.802;2023-04-07T05:49:48;97700.48;;;1.98;100.00
32492;BME280;20605;49.742;18.802;2023-04-07T05:52:14;97693.29;;;2.07;100.00
32492;BME280;20605;49.742;18.802;2023-04-07T05:54:42;97694.48;;;2.13;100.00
32492;BME280;20605;49.742;18.802;2023-04-07T05:57:09;97689.19;;;2.14;100.00
32492;BME280;20605;49.742;18.802;2023-04-07T05:59:38;97691.23;;;2.17;100.00
32492;BME280;20605;49.742;18.802;2023-04-07T06:02:06;97688.67;;;2.19;100.00
32492;BME280;20605;49.742;18.802;2023-04-07T06:04:32;97692.77;;;2.20;100.00
32492;BME280;20605;49.742;18.802;2023-04-07T06:07:02;97696.38;;;2.24;100.00
32492;BME280;20605;49.742;18.802;2023-04-07T06:09:28;97695.67;;;2.36;100.00
32492;BME280;20605;49.742;18.802;2023-04-07T06:11:54;97694.13;;;2.44;100.00
32492;BME280;20605;49.742;18.802;2023-04-07T06:14:21;97695.30;;;2.57;100.00
32492;BME280;20605;49.742;18.802;2023-04-07T06:16:47;97696.98;;;2.62;100.00
32492;BME280;20605;49.742;18.802;2023-04-07T06:19:13;97688.56;;;2.69;100.00
32492;BME280;20605;49.742;18.802;2023-04-07T06:21:38;97688.89;;;2.75;100.00
32492;BME280;20605;49.742;18.802;2023-04-07T06:24:05;97691.08;;;2.87;100.00
32492;BME280;20605;49.742;18.802;2023-04-07T06:26:34;97682.48;;;2.98;100.00
32492;BME280;20605;49.742;18.802;2023-04-07T06:29:01;97678.17;;;3.01;100.00
32492;BME280;20605;49.742;18.802;2023-04-07T06:31:27;97679.16;;;3.11;100.00
32492;BME280;20605;49.742;18.802;2023-04-07T06:33:52;97678.42;;;3.24;100.00
32492;BME280;20605;49.742;18.802;2023-04-07T06:36:20;97676.99;;;3.35;100.00
32492;BME280;20605;49.742;18.802;2023-04-07T06:38:48;97680.89;;;3.45;100.00
32492;BME280;20605;49.742;18.802;2023-04-07T06:41:14;97679.30;;;3.52;100.00
32492;BME280;20605;49.742;18.802;2023-04-07T06:43:46;97682.54;;;3.56;100.00
32492;BME280;20605;49.742;18.802;2023-04-07T06:46:12;97681.65;;;3.63;100.00
32492;BME280;20605;49.742;18.802;2023-04-07T06:48:38;97689.86;;;3.66;100.00
32492;BME280;20605;49.742;18.802;2023-04-07T06:51:04;97696.71;;;3.69;100.00
32492;BME280;20605;49.742;18.802;2023-04-07T06:53:31;97701.53;;;3.68;100.00
32492;BME280;20605;49.742;18.802;2023-04-07T06:56:08;97696.05;;;3.65;100.00
32492;BME280;20605;49.742;18.802;2023-04-07T06:58:36;97693.30;;;3.65;100.00
32492;BME280;20605;49.742;18.802;2023-04-07T07:01:26;97695.89;;;3.63;100.00
32492;BME280;20605;49.742;18.802;2023-04-07T07:03:53;97704.99;;;3.63;100.00
32492;BME280;20605;49.742;18.802;2023-04-07T07:06:18;97707.23;;;3.61;100.00
32492;BME280;20605;49.742;18.802;2023-04-07T07:08:44;97709.80;;;3.64;100.00
32492;BME280;20605;49.742;18.802;2023-04-07T07:11:10;97709.46;;;3.63;100.00
32492;BME280;20605;49.742;18.802;2023-04-07T07:13:36;97711.19;;;3.62;100.00
32492;BME280;20605;49.742;18.802;2023-04-07T07:16:02;97711.50;;;3.66;100.00
32492;BME280;20605;49.742;18.802;2023-04-07T07:21:45;97706.87;;;3.66;100.00
32492;BME280;20605;49.742;18.802;2023-04-07T07:24:53;97703.48;;;3.84;100.00
32492;BME280;20605;49.742;18.802;2023-04-07T07:27:19;97704.51;;;3.86;100.00
32492;BME280;20605;49.742;18.802;2023-04-07T07:29:45;97705.67;;;3.88;100.00
32492;BME280;20605;49.742;18.802;2023-04-07T07:32:11;97706.32;;;3.93;100.00
32492;BME280;20605;49.742;18.802;2023-04-07T07:34:37;97707.16;;;3.95;100.00
32492;BME280;20605;49.742;18.802;2023-04-07T07:37:02;97709.88;;;3.99;100.00
32492;BME280;20605;49.742;18.802;2023-04-07T07:39:28;97713.10;;;4.05;100.00
32492;BME280;20605;49.742;18.802;2023-04-07T07:41:54;97712.92;;;4.05;100.00
32492;BME280;20605;49.742;18.802;2023-04-07T07:44:21;97716.58;;;3.98;100.00
32492;BME280;20605;49.742;18.802;2023-04-07T07:46:48;97717.47;;;3.96;100.00
32492;BME280;20605;49.742;18.802;2023-04-07T07:49:14;97719.55;;;3.93;100.00
32492;BME280;20605;49.742;18.802;2023-04-07T07:51:40;97720.25;;;3.90;100.00
32492;BME280;20605;49.742;18.802;2023-04-07T07:54:07;97721.17;;;3.84;100.00
32492;BME280;20605;49.742;18.802;2023-04-07T07:56:35;97716.71;;;3.84;100.00
32492;BME280;20605;49.742;18.802;2023-04-07T08:02:14;97711.35;;;3.89;100.00
32492;BME280;20605;49.742;18.802;2023-04-07T08:05:11;97713.08;;;3.87;100.00
32492;BME280;20605;49.742;18.802;2023-04-07T08:07:37;97711.83;;;3.91;100.00
32492;BME280;20605;49.742;18.802;2023-04-07T08:10:04;97713.36;;;3.92;100.00
32492;BME280;20605;49.742;18.802;2023-04-07T08:12:39;97712.50;;;3.93;100.00
32492;BME280;20605;49.742;18.802;2023-04-07T08:15:07;97710.91;;;3.99;100.00
32492;BME280;20605;49.742;18.802;2023-04-07T08:17:44;97710.34;;;4.06;100.00
32492;BME280;20605;49.742;18.802;2023-04-07T08:20:10;97711.83;;;4.14;100.00
32492;BME280;20605;49.742;18.802;2023-04-07T08:22:38;97712.14;;;4.19;100.00
32492;BME280;20605;49.742;18.802;2023-04-07T08:25:04;97714.01;;;4.22;100.00
32492;BME280;20605;49.742;18.802;2023-04-07T08:27:31;97712.29;;;4.22;100.00
32492;BME280;20605;49.742;18.802;2023-04-07T08:30:11;97710.27;;;4.15;100.00
32492;BME280;20605;49.742;18.802;2023-04-07T08:32:52;97708.66;;;4.01;100.00
32492;BME280;20605;49.742;18.802;2023-04-07T08:35:17;97715.13;;;3.89;100.00
32492;BME280;20605;49.742;18.802;2023-04-07T08:37:43;97716.36;;;3.85;100.00
32492;BME280;20605;49.742;18.802;2023-04-07T08:43:09;97722.36;;;3.86;100.00
32492;BME280;20605;49.742;18.802;2023-04-07T08:49:44;97722.64;;;4.16;100.00
32492;BME280;20605;49.742;18.802;2023-04-07T08:55:42;97712.19;;;4.34;100.00
32492;BME280;20605;49.742;18.802;2023-04-07T09:02:08;97712.30;;;4.40;100.00
32492;BME280;20605;49.742;18.802;2023-04-07T09:05:35;97701.76;;;4.47;100.00
32492;BME280;20605;49.742;18.802;2023-04-07T09:09:21;97703.83;;;4.46;100.00
32492;BME280;20605;49.742;18.802;2023-04-07T09:13:08;97703.36;;;4.40;100.00
32492;BME280;20605;49.742;18.802;2023-04-07T09:16:54;97696.77;;;4.47;100.00
32492;BME280;20605;49.742;18.802;2023-04-07T09:20:59;97700.21;;;4.47;100.00
32492;BME280;20605;49.742;18.802;2023-04-07T09:24:46;97695.73;;;4.47;100.00
32492;BME280;20605;49.742;18.802;2023-04-07T09:28:18;97694.09;;;4.39;100.00
32492;BME280;20605;49.742;18.802;2023-04-07T09:30:52;97700.38;;;4.48;100.00
32492;BME280;20605;49.742;18.802;2023-04-07T09:33:39;97698.48;;;4.48;100.00
32492;BME280;20605;49.742;18.802;2023-04-07T09:36:05;97702.33;;;4.41;100.00
32492;BME280;20605;49.742;18.802;2023-04-07T09:38:34;97697.69;;;4.41;100.00
32492;BME280;20605;49.742;18.802;2023-04-07T09:41:14;97697.17;;;4.41;100.00
32492;BME280;20605;49.742;18.802;2023-04-07T09:43:45;97701.35;;;4.35;100.00
32492;BME280;20605;49.742;18.802;2023-04-07T09:46:16;97705.81;;;4.36;100.00
32492;BME280;20605;49.742;18.802;2023-04-07T09:48:45;97703.58;;;4.36;100.00
32492;BME280;20605;49.742;18.802;2023-04-07T09:51:15;97702.12;;;4.26;100.00
32492;BME280;20605;49.742;18.802;2023-04-07T09:53:46;97700.33;;;4.12;100.00
32492;BME280;20605;49.742;18.802;2023-04-07T09:56:18;97700.73;;;4.05;100.00
32492;BME280;20605;49.742;18.802;2023-04-07T09:58:48;97699.07;;;3.97;100.00
32492;BME280;20605;49.742;18.802;2023-04-07T10:01:16;97696.77;;;3.88;100.00
32492;BME280;20605;49.742;18.802;2023-04-07T10:03:44;97700.41;;;3.83;100.00
32492;BME280;20605;49.742;18.802;2023-04-07T10:06:12;97696.99;;;3.79;100.00
32492;BME280;20605;49.742;18.802;2023-04-07T10:08:40;97695.63;;;3.79;100.00
32492;BME280;20605;49.742;18.802;2023-04-07T10:11:08;97693.89;;;3.82;100.00
32492;BME280;20605;49.742;18.802;2023-04-07T10:13:49;97695.08;;;3.83;100.00
32492;BME280;20605;49.742;18.802;2023-04-07T10:16:16;97697.35;;;3.78;100.00
32492;BME280;20605;49.742;18.802;2023-04-07T10:18:42;97694.93;;;3.80;100.00
32492;BME280;20605;49.742;18.802;2023-04-07T10:21:28;97694.64;;;3.73;100.00
32492;BME280;20605;49.742;18.802;2023-04-07T10:23:58;97699.11;;;3.72;100.00
32492;BME280;20605;49.742;18.802;2023-04-07T10:29:40;97701.36;;;3.67;100.00
32492;BME280;20605;49.742;18.802;2023-04-07T10:37:29;97696.08;;;3.62;100.00
32492;BME280;20605;49.742;18.802;2023-04-07T10:41:37;97697.60;;;3.65;100.00
32492;BME280;20605;49.742;18.802;2023-04-07T10:57:08;97708.52;;;3.78;100.00
32492;BME280;20605;49.742;18.802;2023-04-07T11:08:02;97708.16;;;3.99;100.00
32492;BME280;20605;49.742;18.802;2023-04-07T11:11:55;97708.11;;;4.06;100.00
32492;BME280;20605;49.742;18.802;2023-04-07T11:15:41;97711.09;;;3.97;100.00
32492;BME280;20605;49.742;18.802;2023-04-07T11:19:27;97714.59;;;3.90;100.00
32492;BME280;20605;49.742;18.802;2023-04-07T11:22:22;97719.85;;;3.78;100.00
32492;BME280;20605;49.742;18.802;2023-04-07T11:24:48;97718.70;;;3.66;100.00
32492;BME280;20605;49.742;18.802;2023-04-07T11:27:14;97714.29;;;3.60;100.00
32492;BME280;20605;49.742;18.802;2023-04-07T11:29:41;97714.14;;;3.54;100.00
32492;BME280;20605;49.742;18.802;2023-04-07T11:32:08;97709.68;;;3.54;100.00
32492;BME280;20605;49.742;18.802;2023-04-07T11:34:35;97703.47;;;3.59;100.00
32492;BME280;20605;49.742;18.802;2023-04-07T11:37:22;97697.74;;;3.70;100.00
32492;BME280;20605;49.742;18.802;2023-04-07T11:39:56;97696.73;;;3.89;100.00
32492;BME280;20605;49.742;18.802;2023-04-07T11:42:33;97690.61;;;4.04;100.00
32492;BME280;20605;49.742;18.802;2023-04-07T11:44:59;97691.15;;;4.21;100.00
32492;BME280;20605;49.742;18.802;2023-04-07T11:47:38;97695.41;;;4.25;100.00
32492;BME280;20605;49.742;18.802;2023-04-07T11:50:06;97692.95;;;4.33;100.00
32492;BME280;20605;49.742;18.802;2023-04-07T11:52:43;97694.12;;;4.37;100.00
32492;BME280;20605;49.742;18.802;2023-04-07T11:55:19;97691.85;;;4.39;100.00
32492;BME280;20605;49.742;18.802;2023-04-07T11:57:46;97687.98;;;4.48;100.00
32492;BME280;20605;49.742;18.802;2023-04-07T12:00:13;97686.06;;;4.52;100.00
32492;BME280;20605;49.742;18.802;2023-04-07T12:02:40;97686.76;;;4.51;100.00
32492;BME280;20605;49.742;18.802;2023-04-07T12:05:06;97687.15;;;4.46;100.00
32492;BME280;20605;49.742;18.802;2023-04-07T12:07:38;97686.17;;;4.40;100.00
32492;BME280;20605;49.742;18.802;2023-04-07T12:10:22;97687.84;;;4.45;100.00
32492;BME280;20605;49.742;18.802;2023-04-07T12:12:48;97686.81;;;4.46;100.00
32492;BME280;20605;49.742;18.802;2023-04-07T12:15:14;97681.45;;;4.49;100.00
32492;BME280;20605;49.742;18.802;2023-04-07T12:17:45;97676.41;;;4.55;100.00
32492;BME280;20605;49.742;18.802;2023-04-07T12:20:12;97677.46;;;4.53;100.00
32492;BME280;20605;49.742;18.802;2023-04-07T12:22:39;97676.84;;;4.46;100.00
32492;BME280;20605;49.742;18.802;2023-04-07T12:25:09;97673.11;;;4.41;100.00
32492;BME280;20605;49.742;18.802;2023-04-07T12:27:38;97673.95;;;4.42;100.00
32492;BME280;20605;49.742;18.802;2023-04-07T12:33:13;97678.92;;;4.44;100.00
32492;BME280;20605;49.742;18.802;2023-04-07T12:35:42;97678.45;;;4.39;100.00
32492;BME280;20605;49.742;18.802;2023-04-07T12:44:43;97675.53;;;4.39;100.00
32492;BME280;20605;49.742;18.802;2023-04-07T12:51:49;97678.74;;;4.25;100.00
32492;BME280;20605;49.742;18.802;2023-04-07T12:55:46;97678.05;;;4.26;100.00
32492;BME280;20605;49.742;18.802;2023-04-07T15:24:23;97702.39;;;3.69;100.00
32492;BME280;20605;49.742;18.802;2023-04-07T15:42:38;97708.03;;;3.42;100.00
32492;BME280;20605;49.742;18.802;2023-04-07T15:45:49;97707.33;;;3.44;100.00
32492;BME280;20605;49.742;18.802;2023-04-07T16:01:12;97709.98;;;3.62;100.00
32492;BME280;20605;49.742;18.802;2023-04-07T16:04:36;97710.66;;;3.62;100.00
32492;BME280;20605;49.742;18.802;2023-04-07T16:07:23;97714.27;;;3.63;100.00
32492;BME280;20605;49.742;18.802;2023-04-07T16:14:30;97710.48;;;3.64;100.00
32492;BME280;20605;49.742;18.802;2023-04-07T16:23:49;97714.71;;;3.75;100.00
32492;BME280;20605;49.742;18.802;2023-04-07T16:30:17;97718.32;;;3.74;100.00
32492;BME280;20605;49.742;18.802;2023-04-07T16:33:19;97717.60;;;3.79;100.00
32492;BME280;20605;49.742;18.802;2023-04-07T16:36:47;97723.14;;;3.74;100.00
32492;BME280;20605;49.742;18.802;2023-04-07T16:40:33;97726.63;;;3.65;100.00
32492;BME280;20605;49.742;18.802;2023-04-07T16:50:02;97731.98;;;3.19;100.00
32492;BME280;20605;49.742;18.802;2023-04-07T16:52:43;97732.88;;;3.09;100.00
32492;BME280;20605;49.742;18.802;2023-04-07T16:55:11;97734.59;;;3.06;100.00
32492;BME280;20605;49.742;18.802;2023-04-07T16:57:37;97738.51;;;3.14;100.00
32492;BME280;20605;49.742;18.802;2023-04-07T17:00:03;97736.08;;;3.22;100.00
32492;BME280;20605;49.742;18.802;2023-04-07T17:02:30;97739.15;;;3.27;100.00
32492;BME280;20605;49.742;18.802;2023-04-07T17:04:56;97740.31;;;3.37;100.00
32492;BME280;20605;49.742;18.802;2023-04-07T17:07:21;97743.36;;;3.45;100.00
32492;BME280;20605;49.742;18.802;2023-04-07T17:09:47;97744.88;;;3.53;100.00
32492;BME280;20605;49.742;18.802;2023-04-07T17:12:13;97742.10;;;3.59;100.00
32492;BME280;20605;49.742;18.802;2023-04-07T17:14:39;97747.24;;;3.62;100.00
32492;BME280;20605;49.742;18.802;2023-04-07T17:17:05;97751.70;;;3.65;100.00
32492;BME280;20605;49.742;18.802;2023-04-07T17:19:31;97753.22;;;3.67;100.00
32492;BME280;20605;49.742;18.802;2023-04-07T17:21:56;97753.21;;;3.69;100.00
32492;BME280;20605;49.742;18.802;2023-04-07T17:24:22;97755.95;;;3.69;100.00
32492;BME280;20605;49.742;18.802;2023-04-07T17:26:48;97757.16;;;3.68;100.00
32492;BME280;20605;49.742;18.802;2023-04-07T17:29:15;97759.94;;;3.62;100.00
32492;BME280;20605;49.742;18.802;2023-04-07T17:31:41;97762.59;;;3.43;100.00
32492;BME280;20605;49.742;18.802;2023-04-07T17:34:09;97759.08;;;3.20;100.00
32492;BME280;20605;49.742;18.802;2023-04-07T17:36:36;97758.25;;;3.10;100.00
32492;BME280;20605;49.742;18.802;2023-04-07T17:39:02;97762.02;;;3.15;100.00
32492;BME280;20605;49.742;18.802;2023-04-07T17:41:33;97763.69;;;3.25;100.00
32492;BME280;20605;49.742;18.802;2023-04-07T17:44:00;97760.61;;;3.24;100.00
32492;BME280;20605;49.742;18.802;2023-04-07T17:46:26;97764.05;;;3.23;100.00
32492;BME280;20605;49.742;18.802;2023-04-07T17:48:52;97764.89;;;3.27;100.00
32492;BME280;20605;49.742;18.802;2023-04-07T17:51:19;97770.88;;;3.31;100.00